Air Navigation Services of Czech Republic
Airport: LKTB Updated:  22.11.2017 10:36:05  UTC
 METAR LKTB 22.11. 10:30 ...
METAR LKTB 221030Z 22010KT 9999 FEW014 09/06 Q1013 NOSIG RMK REG QNH 1009=
 TAF LKTB 22.11. 05:00 ...
TAF LKTB 220500Z 2206/2312 23006KT 9999 BKN025      BECMG 2206/2208 CAVOK      BECMG 2216/2218 VRB02KT      TEMPO 2307/2312 9999 SCT030      PROB30 TEMPO 2309/2312 BKN030=